createdAt,value
2023-03-06T00:00:35.211Z,37.47
2023-03-06T00:03:03.452Z,36.50
2023-03-06T00:05:31.844Z,38.72
2023-03-06T00:08:01.742Z,38.58
2023-03-06T00:10:32.515Z,35.33
2023-03-06T00:13:04.244Z,37.05
2023-03-06T00:15:33.050Z,34.33
2023-03-06T00:18:03.655Z,39.13
2023-03-06T00:20:32.074Z,36.03
2023-03-06T00:23:01.823Z,38.50
2023-03-06T00:25:30.031Z,38.22
2023-03-06T00:27:58.559Z,41.60
2023-03-06T00:30:27.199Z,39.83
2023-03-06T00:32:56.064Z,51.30
2023-03-06T00:35:25.253Z,44.03
2023-03-06T00:37:53.562Z,45.78
2023-03-06T00:40:23.473Z,48.97
2023-03-06T00:42:51.744Z,46.15
2023-03-06T00:45:21.234Z,57.83
2023-03-06T00:47:49.593Z,50.47
2023-03-06T00:50:17.962Z,46.38
2023-03-06T00:52:46.706Z,50.55
2023-03-06T00:55:14.956Z,49.10
2023-03-06T00:57:44.528Z,50.90
2023-03-06T01:00:14.594Z,49.33
2023-03-06T01:02:43.084Z,48.47
2023-03-06T01:05:13.905Z,48.53
2023-03-06T01:07:42.271Z,45.78
2023-03-06T01:10:13.886Z,52.03
2023-03-06T01:12:43.715Z,48.33
2023-03-06T01:15:14.698Z,46.72
2023-03-06T01:17:42.891Z,48.58
2023-03-06T01:20:14.970Z,54.22
2023-03-06T01:22:43.513Z,45.53
2023-03-06T01:25:13.246Z,48.95
2023-03-06T01:27:41.403Z,45.70
2023-03-06T01:30:14.767Z,42.95
2023-03-06T01:32:43.076Z,45.42
2023-03-06T01:35:12.548Z,51.55
2023-03-06T01:37:41.966Z,43.92
2023-03-06T01:40:13.208Z,44.40
2023-03-06T01:42:42.943Z,43.67
2023-03-06T01:46:03.568Z,43.17
2023-03-06T01:48:33.236Z,46.53
2023-03-06T01:51:01.435Z,44.08
2023-03-06T01:53:30.009Z,46.05
2023-03-06T01:55:58.180Z,45.63
2023-03-06T01:58:26.442Z,46.15
2023-03-06T02:00:54.810Z,45.85
2023-03-06T02:03:28.045Z,51.38
2023-03-06T02:05:59.711Z,51.13
2023-03-06T02:08:29.225Z,48.33
2023-03-06T02:11:11.923Z,49.83
2023-03-06T02:13:41.467Z,51.60
2023-03-06T02:16:11.837Z,51.08
2023-03-06T02:18:41.781Z,53.75
2023-03-06T02:21:20.111Z,48.42
2023-03-06T02:24:00.855Z,47.75
2023-03-06T02:26:32.665Z,49.83
2023-03-06T02:29:01.160Z,47.85
2023-03-06T02:31:32.064Z,49.42
2023-03-06T02:34:08.675Z,49.42
2023-03-06T02:36:42.766Z,45.15
2023-03-06T02:39:11.442Z,48.45
2023-03-06T02:41:41.185Z,48.47
2023-03-06T02:44:10.016Z,47.88
2023-03-06T02:46:38.423Z,46.40
2023-03-06T02:49:06.564Z,46.42
2023-03-06T02:51:36.878Z,46.63
2023-03-06T02:54:05.318Z,48.45
2023-03-06T02:56:33.510Z,45.75
2023-03-06T02:59:03.077Z,49.95
2023-03-06T03:01:31.810Z,46.38
2023-03-06T03:04:00.116Z,49.00
2023-03-06T03:06:29.361Z,48.65
2023-03-06T03:08:57.566Z,49.45
2023-03-06T03:11:26.467Z,54.92
2023-03-06T03:13:54.792Z,50.58
2023-03-06T03:16:27.077Z,50.65
2023-03-06T03:18:59.170Z,52.17
2023-03-06T03:21:28.629Z,51.92
2023-03-06T03:23:57.303Z,57.33
2023-03-06T03:26:28.879Z,55.75
2023-03-06T03:29:17.362Z,54.63
2023-03-06T03:31:47.057Z,59.67
2023-03-06T03:34:15.545Z,57.90
2023-03-06T03:36:44.446Z,57.47
2023-03-06T03:39:14.056Z,59.20
2023-03-06T03:41:43.349Z,61.33
2023-03-06T03:44:12.409Z,56.65
2023-03-06T03:46:41.114Z,63.72
2023-03-06T03:49:15.872Z,63.95
2023-03-06T03:51:46.045Z,60.72
2023-03-06T03:54:14.714Z,54.33
2023-03-06T03:56:46.600Z,68.22
2023-03-06T03:59:23.357Z,63.30
2023-03-06T04:02:05.418Z,61.10
2023-03-06T04:04:40.674Z,59.25
2023-03-06T04:07:09.626Z,61.72
2023-03-06T04:09:38.648Z,64.05
2023-03-06T04:12:08.188Z,66.65
2023-03-06T04:14:38.037Z,65.00
2023-03-06T04:17:07.160Z,61.90
2023-03-06T04:19:35.424Z,67.72
2023-03-06T04:22:05.116Z,68.68
2023-03-06T04:24:36.269Z,65.45
2023-03-06T04:27:04.812Z,74.65
2023-03-06T04:29:35.456Z,78.85
2023-03-06T04:32:03.905Z,69.53
2023-03-06T04:34:32.260Z,69.57
2023-03-06T04:37:00.560Z,70.55
2023-03-06T04:39:30.122Z,71.20
2023-03-06T04:41:58.555Z,71.05
2023-03-06T04:44:26.644Z,70.97
2023-03-06T04:46:54.782Z,76.78
2023-03-06T04:49:22.968Z,77.10
2023-03-06T04:51:51.133Z,73.55
2023-03-06T04:54:19.350Z,74.68
2023-03-06T04:56:48.826Z,71.07
2023-03-06T04:59:17.016Z,69.45
2023-03-06T05:01:45.316Z,79.30
2023-03-06T05:04:13.670Z,72.60
2023-03-06T05:06:41.860Z,69.35
2023-03-06T05:09:10.059Z,69.05
2023-03-06T05:11:38.240Z,73.20
2023-03-06T05:14:07.735Z,80.95
2023-03-06T05:16:35.960Z,66.88
2023-03-06T05:19:04.341Z,70.28
2023-03-06T05:21:32.475Z,64.97
2023-03-06T05:24:00.928Z,66.05
2023-03-06T05:26:29.088Z,68.80
2023-03-06T05:28:57.345Z,73.47
2023-03-06T05:31:26.990Z,63.28
2023-03-06T05:33:55.239Z,63.58
2023-03-06T05:36:23.367Z,62.90
2023-03-06T05:38:52.161Z,67.05
2023-03-06T05:41:20.318Z,63.53
2023-03-06T05:43:48.665Z,68.47
2023-03-06T05:46:17.007Z,58.50
2023-03-06T05:48:47.104Z,62.63
2023-03-06T05:51:15.639Z,55.35
2023-03-06T05:53:43.933Z,61.25
2023-03-06T05:56:12.038Z,60.97
2023-03-06T05:58:40.479Z,58.90
2023-03-06T06:01:15.026Z,61.78
2023-03-06T06:03:43.939Z,58.60
2023-03-06T06:06:16.129Z,68.18
2023-03-06T06:08:44.697Z,61.90
2023-03-06T06:11:14.467Z,65.35
2023-03-06T06:13:43.535Z,65.75
2023-03-06T06:16:15.624Z,67.20
2023-03-06T06:18:44.549Z,68.90
2023-03-06T06:21:15.649Z,65.70
2023-03-06T06:23:44.162Z,64.45
2023-03-06T06:26:12.847Z,65.35
2023-03-06T06:28:41.092Z,64.90
2023-03-06T06:31:10.575Z,70.32
2023-03-06T06:33:38.995Z,64.55
2023-03-06T06:36:15.843Z,66.20
2023-03-06T06:38:44.060Z,62.97
2023-03-06T06:44:01.936Z,69.13
2023-03-06T06:47:18.198Z,68.43
2023-03-06T06:49:18.753Z,65.38
2023-03-06T06:51:48.248Z,65.80
2023-03-06T06:54:16.395Z,70.82
2023-03-06T06:56:44.623Z,70.80
2023-03-06T06:59:17.501Z,67.97
2023-03-06T07:01:46.371Z,72.80
2023-03-06T07:04:15.154Z,68.45
2023-03-06T07:06:43.751Z,68.03
2023-03-06T07:09:14.594Z,75.45
2023-03-06T07:11:43.249Z,71.22
2023-03-06T07:14:11.472Z,67.55
2023-03-06T07:16:39.989Z,71.78
2023-03-06T07:19:09.098Z,72.90
2023-03-06T07:21:37.245Z,69.25
2023-03-06T07:24:06.057Z,75.68
2023-03-06T07:26:35.772Z,83.20
2023-03-06T07:29:05.152Z,72.13
2023-03-06T07:31:33.446Z,71.88
2023-03-06T07:34:04.717Z,76.43
2023-03-06T07:36:34.536Z,76.88
2023-03-06T07:39:02.791Z,81.38
2023-03-06T07:41:30.928Z,81.20
2023-03-06T07:44:00.616Z,78.88
2023-03-06T07:46:29.294Z,73.13
2023-03-06T07:48:58.158Z,75.88
2023-03-06T07:51:26.415Z,75.63
2023-03-06T07:53:54.671Z,76.47
2023-03-06T07:56:22.924Z,76.13
2023-03-06T07:58:51.259Z,77.80
2023-03-06T08:01:24.532Z,79.70
2023-03-06T08:03:53.527Z,78.30
2023-03-06T08:06:30.009Z,78.80
2023-03-06T08:09:02.011Z,73.70
2023-03-06T08:11:33.150Z,71.45
2023-03-06T08:14:01.896Z,83.68
2023-03-06T08:16:32.213Z,77.28
2023-03-06T08:19:00.496Z,70.55
2023-03-06T08:21:29.986Z,79.10
2023-03-06T08:23:58.348Z,69.30
2023-03-06T08:26:28.406Z,68.18
2023-03-06T08:28:59.294Z,63.33
2023-03-06T08:31:33.658Z,64.93
2023-03-06T08:34:06.199Z,67.10
2023-03-06T08:36:34.809Z,70.45
2023-03-06T08:39:03.263Z,67.50
2023-03-06T08:41:32.230Z,65.28
2023-03-06T08:44:00.622Z,56.03
2023-03-06T08:46:31.773Z,55.42
2023-03-06T08:49:00.253Z,59.63
2023-03-06T08:51:29.510Z,60.78
2023-03-06T08:53:59.017Z,54.28
2023-03-06T08:56:29.454Z,61.33
2023-03-06T08:59:00.109Z,56.67
2023-03-06T09:01:32.865Z,54.25
2023-03-06T09:06:33.867Z,63.40
2023-03-06T09:09:02.196Z,58.28
2023-03-06T09:11:30.460Z,59.28
2023-03-06T09:13:59.133Z,54.47
2023-03-06T09:16:28.328Z,59.67
2023-03-06T09:18:58.729Z,56.58
2023-03-06T09:21:28.569Z,56.95
2023-03-06T09:23:57.071Z,58.40
2023-03-06T09:26:39.737Z,53.50
2023-03-06T09:29:12.502Z,54.42
2023-03-06T09:31:40.826Z,52.65
2023-03-06T09:34:10.374Z,56.30
2023-03-06T09:36:54.925Z,67.03
2023-03-06T09:39:24.995Z,54.22
2023-03-06T09:41:54.186Z,52.90
2023-03-06T09:44:27.521Z,57.88
2023-03-06T09:47:23.955Z,53.13
2023-03-06T09:50:11.179Z,48.78
2023-03-06T09:52:52.238Z,50.70
2023-03-06T09:55:23.274Z,51.92
2023-03-06T09:57:58.946Z,54.33
2023-03-06T10:00:35.061Z,59.15
2023-03-06T10:03:21.235Z,51.33
2023-03-06T10:05:58.215Z,52.63
2023-03-06T10:08:31.280Z,52.08
2023-03-06T10:11:03.679Z,55.78
2023-03-06T10:13:40.250Z,49.78
2023-03-06T10:16:27.606Z,51.78
2023-03-06T10:18:57.956Z,56.97
2023-03-06T10:21:45.581Z,54.38
2023-03-06T10:24:43.471Z,48.78
2023-03-06T10:27:23.539Z,55.35
2023-03-06T10:30:04.296Z,49.15
2023-03-06T10:32:48.718Z,42.63
2023-03-06T10:35:23.305Z,44.40
2023-03-06T10:37:59.083Z,47.58
2023-03-06T10:40:39.363Z,44.70
2023-03-06T10:43:12.462Z,43.70
2023-03-06T10:45:52.366Z,48.20
2023-03-06T10:48:24.300Z,51.78
2023-03-06T10:50:54.852Z,42.13
2023-03-06T10:53:29.008Z,38.55
2023-03-06T10:56:00.144Z,43.28
2023-03-06T10:58:31.429Z,47.80
2023-03-06T11:01:07.923Z,44.53
2023-03-06T11:03:37.340Z,48.47
2023-03-06T11:06:13.661Z,44.42
2023-03-06T11:08:45.414Z,44.38
2023-03-06T11:11:22.443Z,42.13
2023-03-06T11:16:31.340Z,40.83
2023-03-06T11:19:03.868Z,37.60
2023-03-06T11:21:35.170Z,40.88
2023-03-06T11:24:09.646Z,35.08
2023-03-06T11:26:45.834Z,32.42
2023-03-06T11:29:29.589Z,35.20
2023-03-06T11:32:05.098Z,36.10
2023-03-06T11:34:42.582Z,35.17
2023-03-06T11:37:21.891Z,37.00
2023-03-06T11:40:01.430Z,35.97
2023-03-06T11:42:33.534Z,36.85
2023-03-06T11:45:23.108Z,37.20
2023-03-06T11:48:01.640Z,31.90
2023-03-06T11:50:35.823Z,35.28
2023-03-06T11:53:07.660Z,36.10
2023-03-06T11:55:50.462Z,31.45
2023-03-06T11:58:57.287Z,32.42
2023-03-06T12:01:33.719Z,33.97
2023-03-06T12:04:49.604Z,34.83
2023-03-06T12:07:26.538Z,35.75
2023-03-06T12:13:10.334Z,30.35
2023-03-06T12:16:02.776Z,25.02
2023-03-06T12:18:43.950Z,27.70
2023-03-06T12:21:23.941Z,35.25
2023-03-06T12:24:23.888Z,28.40
2023-03-06T12:27:10.019Z,31.13
2023-03-06T12:30:06.348Z,35.92
2023-03-06T12:32:48.679Z,34.78
2023-03-06T12:35:36.609Z,39.53
2023-03-06T12:38:26.721Z,35.20
2023-03-06T12:41:16.673Z,33.53
2023-03-06T12:44:29.254Z,33.33
2023-03-06T12:47:03.742Z,37.20
2023-03-06T12:49:38.658Z,34.88
2023-03-06T12:52:09.883Z,37.85
2023-03-06T12:54:41.683Z,36.65
2023-03-06T12:57:12.439Z,37.78
2023-03-06T12:59:47.144Z,33.38
2023-03-06T13:02:54.147Z,32.85
2023-03-06T13:06:14.712Z,31.77
2023-03-06T13:09:15.835Z,31.08
2023-03-06T13:12:26.165Z,36.03
2023-03-06T13:15:02.019Z,30.42
2023-03-06T13:17:37.821Z,34.33
2023-03-06T13:20:43.976Z,36.42
2023-03-06T13:23:52.421Z,37.05
2023-03-06T13:27:06.905Z,36.70
2023-03-06T13:30:47.064Z,34.38
2023-03-06T13:33:53.525Z,31.25
2023-03-06T13:36:31.101Z,28.80
2023-03-06T13:39:09.763Z,32.65
2023-03-06T13:41:56.403Z,31.58
2023-03-06T13:44:52.310Z,29.73
2023-03-06T13:48:21.110Z,30.92
2023-03-06T13:50:47.319Z,31.48
2023-03-06T13:54:16.436Z,32.42
2023-03-06T13:57:18.601Z,32.97
2023-03-06T14:00:32.986Z,30.02
2023-03-06T14:03:47.613Z,35.78
2023-03-06T14:06:54.497Z,29.08
2023-03-06T14:09:30.855Z,33.53
2023-03-06T14:12:06.927Z,32.67
2023-03-06T14:14:44.381Z,43.47
2023-03-06T14:17:26.426Z,32.92
2023-03-06T14:19:55.207Z,38.73
2023-03-06T14:22:25.899Z,31.17
2023-03-06T14:25:00.689Z,34.05
2023-03-06T14:27:45.690Z,34.78
2023-03-06T14:30:17.388Z,33.60
2023-03-06T14:32:46.625Z,34.90
2023-03-06T14:35:26.341Z,31.55
2023-03-06T14:38:01.551Z,34.60
2023-03-06T14:40:34.404Z,34.22
2023-03-06T14:43:21.952Z,36.13
2023-03-06T14:45:57.222Z,34.55
2023-03-06T14:48:27.934Z,36.35
2023-03-06T14:50:57.690Z,33.65
2023-03-06T14:53:31.402Z,35.63
2023-03-06T14:56:04.934Z,35.05
2023-03-06T14:58:38.718Z,29.92
2023-03-06T15:01:10.757Z,34.72
2023-03-06T15:03:46.505Z,33.45
2023-03-06T15:06:21.558Z,29.98
2023-03-06T15:08:59.732Z,30.13
2023-03-06T15:11:28.031Z,29.27
2023-03-06T15:14:04.403Z,31.80
2023-03-06T15:16:32.904Z,29.33
2023-03-06T15:19:02.610Z,33.25
2023-03-06T15:21:35.857Z,28.83
2023-03-06T15:24:36.073Z,32.63
2023-03-06T15:27:07.233Z,31.63
2023-03-06T15:29:38.887Z,33.47
2023-03-06T15:32:42.348Z,39.85
2023-03-06T15:35:32.684Z,37.35
2023-03-06T15:38:01.408Z,34.50
2023-03-06T15:40:32.983Z,35.13
2023-03-06T15:43:02.035Z,36.80
2023-03-06T15:45:31.875Z,35.42
2023-03-06T15:48:00.090Z,36.88
2023-03-06T15:50:30.397Z,30.02
2023-03-06T15:52:58.638Z,30.75
2023-03-06T15:55:27.443Z,28.90
2023-03-06T15:58:00.107Z,28.75
2023-03-06T16:02:59.804Z,30.50
2023-03-06T16:05:28.989Z,33.03
2023-03-06T16:07:57.676Z,29.95
2023-03-06T16:10:28.621Z,29.15
2023-03-06T16:13:03.472Z,27.20
2023-03-06T16:15:39.104Z,31.98
2023-03-06T16:18:07.457Z,29.17
2023-03-06T16:20:35.783Z,31.92
2023-03-06T16:23:07.827Z,34.40
2023-03-06T16:25:36.121Z,40.63
2023-03-06T16:28:08.587Z,28.38
2023-03-06T16:30:38.280Z,30.10
2023-03-06T16:33:07.395Z,36.58
2023-03-06T16:35:35.587Z,32.13
2023-03-06T16:38:03.792Z,30.08
2023-03-06T16:40:37.603Z,29.80
2023-03-06T16:43:08.410Z,29.40
2023-03-06T16:45:40.047Z,34.45
2023-03-06T16:48:12.136Z,29.40
2023-03-06T16:50:42.105Z,30.00
2023-03-06T16:53:10.591Z,27.02
2023-03-06T16:55:38.805Z,29.92
2023-03-06T16:58:09.416Z,30.20
2023-03-06T17:00:37.670Z,28.63
2023-03-06T17:03:05.985Z,27.35
2023-03-06T17:05:35.168Z,33.05
2023-03-06T17:08:04.016Z,34.00
2023-03-06T17:10:32.531Z,34.22
2023-03-06T17:13:00.661Z,31.60
2023-03-06T17:15:30.483Z,33.65
2023-03-06T17:17:59.485Z,31.70
2023-03-06T17:20:27.689Z,27.55
2023-03-06T17:22:55.879Z,30.60
2023-03-06T17:25:24.297Z,31.73
2023-03-06T17:27:52.480Z,30.80
2023-03-06T17:30:23.311Z,48.88
2023-03-06T17:32:53.687Z,30.35
2023-03-06T17:35:21.966Z,32.88
2023-03-06T17:37:50.292Z,30.70
2023-03-06T17:40:18.682Z,32.97
2023-03-06T17:42:46.826Z,31.35
2023-03-06T17:45:15.046Z,29.40
2023-03-06T17:47:43.210Z,30.27
2023-03-06T17:50:13.368Z,30.83
2023-03-06T17:52:41.502Z,28.90
2023-03-06T17:55:10.803Z,29.52
2023-03-06T17:57:38.933Z,29.95
2023-03-06T18:00:09.409Z,31.42
2023-03-06T18:02:45.294Z,31.33
2023-03-06T18:05:15.038Z,29.80
2023-03-06T18:07:43.314Z,28.42
2023-03-06T18:10:12.266Z,29.65
2023-03-06T18:12:40.402Z,33.72
2023-03-06T18:15:12.411Z,31.10
2023-03-06T18:17:40.552Z,34.13
2023-03-06T18:20:10.668Z,33.58
2023-03-06T18:22:40.169Z,30.65
2023-03-06T18:25:09.464Z,33.05
2023-03-06T18:27:37.884Z,31.83
2023-03-06T18:30:07.658Z,34.90
2023-03-06T18:32:39.262Z,32.92
2023-03-06T18:35:15.085Z,34.03
2023-03-06T18:37:48.573Z,32.47
2023-03-06T18:40:24.873Z,33.25
2023-03-06T18:42:54.310Z,67.20
2023-03-06T18:45:23.144Z,34.28
2023-03-06T18:47:51.965Z,38.38
2023-03-06T18:50:21.057Z,33.40
2023-03-06T18:52:51.375Z,39.42
2023-03-06T18:55:20.157Z,35.70
2023-03-06T18:57:48.836Z,36.20
2023-03-06T19:00:19.215Z,36.10
2023-03-06T19:02:47.844Z,37.17
2023-03-06T19:05:18.929Z,38.22
2023-03-06T19:07:53.076Z,37.35
2023-03-06T19:10:25.392Z,36.20
2023-03-06T19:12:56.551Z,37.20
2023-03-06T19:15:27.649Z,35.85
2023-03-06T19:18:00.200Z,38.28
2023-03-06T19:20:33.283Z,31.63
2023-03-06T19:23:06.576Z,37.30
2023-03-06T19:25:38.406Z,37.28
2023-03-06T19:28:13.743Z,33.97
2023-03-06T19:30:49.808Z,40.10
2023-03-06T19:33:23.664Z,36.10
2023-03-06T19:36:04.263Z,34.55
2023-03-06T19:38:38.920Z,41.38
2023-03-06T19:41:15.472Z,35.22
2023-03-06T19:43:44.718Z,36.17
2023-03-06T19:46:15.888Z,34.40
2023-03-06T19:48:53.406Z,39.70
2023-03-06T19:51:21.921Z,35.70
2023-03-06T19:53:51.675Z,31.85
2023-03-06T19:56:23.692Z,38.58
2023-03-06T19:58:53.123Z,35.15
2023-03-06T20:01:23.604Z,40.13
2023-03-06T20:03:58.713Z,39.13
2023-03-06T20:06:29.620Z,38.38
2023-03-06T20:08:59.647Z,37.15
2023-03-06T20:11:30.946Z,36.42
2023-03-06T20:14:01.381Z,46.13
2023-03-06T20:16:39.690Z,47.05
2023-03-06T20:19:12.945Z,42.28
2023-03-06T20:21:46.686Z,38.63
2023-03-06T20:24:18.809Z,44.78
2023-03-06T20:26:51.855Z,44.35
2023-03-06T20:29:20.523Z,41.63
2023-03-06T20:31:49.203Z,45.58
2023-03-06T20:34:17.721Z,46.70
2023-03-06T20:36:46.202Z,46.92
2023-03-06T20:39:19.214Z,46.15
2023-03-06T20:41:48.771Z,51.65
2023-03-06T20:44:20.290Z,50.25
2023-03-06T20:46:55.344Z,46.65
2023-03-06T20:49:27.429Z,48.47
2023-03-06T20:52:02.181Z,50.50
2023-03-06T20:54:32.165Z,54.78
2023-03-06T20:57:02.504Z,53.28
2023-03-06T20:59:31.048Z,47.55
2023-03-06T21:01:59.576Z,49.67
2023-03-06T21:04:27.819Z,50.38
2023-03-06T21:06:56.881Z,47.38
2023-03-06T21:09:25.299Z,47.83
2023-03-06T21:11:55.132Z,44.00
2023-03-06T21:14:25.576Z,44.78
2023-03-06T21:16:54.015Z,48.28
2023-03-06T21:19:25.123Z,44.83
2023-03-06T21:21:56.741Z,52.17
2023-03-06T21:24:26.840Z,49.20
2023-03-06T21:26:57.080Z,44.47
2023-03-06T21:29:25.814Z,45.63
2023-03-06T21:31:54.338Z,45.88
2023-03-06T21:34:22.683Z,44.22
2023-03-06T21:36:51.063Z,42.40
2023-03-06T21:39:19.475Z,46.60
2023-03-06T21:41:47.913Z,45.22
2023-03-06T21:44:17.708Z,46.60
2023-03-06T21:46:45.890Z,46.90
2023-03-06T21:49:14.040Z,44.10
2023-03-06T21:51:42.423Z,48.08
2023-03-06T21:54:13.011Z,51.35
2023-03-06T21:56:41.405Z,47.55
2023-03-06T21:59:09.582Z,44.15
2023-03-06T22:01:39.414Z,45.55
2023-03-06T22:04:07.811Z,45.17
2023-03-06T22:06:36.662Z,45.88
2023-03-06T22:09:05.285Z,47.92
2023-03-06T22:11:37.006Z,51.78
2023-03-06T22:14:05.811Z,47.13
2023-03-06T22:16:34.444Z,47.25
2023-03-06T22:19:04.257Z,45.47
2023-03-06T22:21:32.536Z,50.50
2023-03-06T22:24:01.078Z,45.35
2023-03-06T22:26:31.257Z,49.78
2023-03-06T22:28:59.496Z,51.72
2023-03-06T22:31:29.524Z,47.42
2023-03-06T22:34:00.371Z,46.72
2023-03-06T22:36:31.729Z,53.38
2023-03-06T22:39:05.269Z,57.80
2023-03-06T22:41:33.738Z,45.28
2023-03-06T22:44:03.307Z,45.60
2023-03-06T22:46:32.563Z,44.00
2023-03-06T22:49:02.230Z,47.28
2023-03-06T22:51:31.957Z,43.05
2023-03-06T22:54:00.237Z,41.60
2023-03-06T22:56:28.617Z,40.55
2023-03-06T22:58:57.584Z,37.22
2023-03-06T23:01:28.096Z,39.72
2023-03-06T23:03:59.223Z,45.20
2023-03-06T23:06:31.852Z,36.53
2023-03-06T23:09:03.477Z,38.50
2023-03-06T23:11:31.979Z,38.75
2023-03-06T23:14:20.401Z,34.53
2023-03-06T23:17:07.776Z,37.92
2023-03-06T23:19:54.716Z,37.17
2023-03-06T23:22:43.128Z,37.45
2023-03-06T23:25:30.407Z,37.47
2023-03-06T23:27:58.811Z,32.47
2023-03-06T23:30:27.023Z,31.00
2023-03-06T23:32:55.620Z,31.55
2023-03-06T23:35:24.036Z,35.08
2023-03-06T23:37:53.620Z,32.88
2023-03-06T23:40:22.301Z,32.58
2023-03-06T23:42:50.519Z,29.20
2023-03-06T23:45:18.955Z,25.15
2023-03-06T23:47:47.224Z,28.48
2023-03-06T23:50:15.976Z,28.38
2023-03-06T23:52:44.205Z,30.48
2023-03-06T23:55:14.120Z,29.58
2023-03-06T23:57:42.523Z,27.67
